x

Nantucket Sound (44020) Wave Buoy

7:50am - Tue 2nd Jun 2015 All times are EDT. -4 hours from GMT.

  • Sig Wave height 1.6ft
  • Swell Direction
  • Peak Period 3s
  • Average Period 4s
  • Wind
    16mph, 20mph gusts
  • Sea Temp 58°f
  • 空気 Temp 53°f
  • Sea Pressure 1018.9mb
  • Nantucket Sound
  • Nantucket Sound

More Historic Weather Station data

Upgrade to MSW Pro to gain access to the past 30 days of data for over 8000 Wavebouys and Weather Stations around the globe.

Join Pro

Comparision Forecast

View Surf forecast
   
Tue 06/02 7:50am 1.6ft 3s 4s 16 20 mph 1018.9mb 58f 53f
6:50am 1.6ft 3s 4s 16 18 mph 1018.9mb 56f 53f
5:50am 1.6ft 3s 4s 16 18 mph 1018.8mb 56f 53f
4:50am 1.6ft 3s 4s 16 18 mph 1018.7mb 56f 53f
3:50am 2ft 3s 4s 13 16 mph 1019.2mb 56f 52f
2:50am 2.5ft 3s 4s 16 18 mph 1019.3mb 56f 52f
1:50am 2.5ft 7s 4s 18 20 mph 1019.6mb 59f 52f
12:50am 2.5ft 4s 4s 18 20 mph 1020mb 62f 52f
Mon 06/01 11:50pm 2.5ft 4s 4s 20 22 mph 1020.7mb 62f 53f
10:50pm 3ft 4s 4s 20 25 mph 1020.9mb 62f 53f
9:50pm 3ft 4s 4s 22 27 mph 1020.9mb 62f 53f
8:50pm 2.5ft 4s 4s 22 27 mph 1020.8mb 62f 53f
7:50pm 2.5ft 4s 4s 22 27 mph 1021.3mb 62f 53f
6:50pm 3.5ft 4s 4s 22 27 mph 1021.1mb 61f 53f
5:50pm 2.5ft 4s 4s 25 29 mph 1020.4mb 59f 53f
4:50pm 2ft 3s 3s 20 25 mph 1020.8mb 59f 54f
3:50pm 1.3ft 3s 3s 18 22 mph 1021.1mb 59f 55f
2:50pm 1.6ft 3s 3s 16 18 mph 1021.2mb 60f 55f
1:50pm 1.6ft 3s 3s 16 18 mph 1020.7mb 61f 54f
12:50pm 1.6ft 3s 3s 16 18 mph 1021.2mb 62f 54f
11:50am 2ft 3s 3s 16 20 mph 1021.5mb 62f 54f
10:50am 2ft 3s 3s 16 18 mph 1021.8mb 62f 55f
9:50am 1.6ft 3s 3s 16 18 mph 1021.6mb 62f 54f
8:50am 1.6ft 3s 3s 16 18 mph 1022.1mb 62f 54f
7:50am 1.6ft 4s 3s 13 18 mph 1022.3mb 62f 54f
6:50am 1.6ft 3s 4s 16 18 mph 1021.5mb 62f 53f
5:50am 1.6ft 3s 3s 16 18 mph 1021.4mb 61f 53f
4:50am 2ft 3s 3s 16 18 mph 1021.2mb 61f 53f
3:50am 2.5ft 4s 3s 20 22 mph 1021.3mb 61f 53f
2:50am 2.5ft 3s 3s 20 22 mph 1021.3mb 61f 53f
1:50am 2.5ft 4s 3s 20 22 mph 1021.7mb 62f 53f
12:50am 2.5ft 3s 3s 18 22 mph 1022mb 62f 54f
Sun 05/31 11:50pm 2.5ft 4s 3s 20 25 mph 1022.2mb 62f 55f
10:50pm 2.5ft 4s 4s 18 22 mph 1022.1mb 62f 55f
9:50pm 2.5ft 4s 4s 20 25 mph 1022.1mb 62f 55f
8:50pm 2.5ft 4s 4s 20 25 mph 1021.5mb 62f 56f
7:50pm 1.3ft 3s 3s 22 27 mph 1020.5mb 62f 56f
6:50pm 1ft 3s 3s 13 16 mph 1019.7mb 62f 62f
5:50pm 1.3ft 3s 3s 16 18 mph 1018.4mb 62f 65f
4:50pm 1.6ft 3s 3s 16 18 mph 1018.3mb 63f 65f
3:50pm 1.6ft 3s 3s 16 20 mph 1018.6mb 62f 65f
2:50pm 1.6ft 3s 3s 18 22 mph 1018.6mb 62f 65f
1:50pm 1.6ft 3s 3s 20 22 mph 1018.6mb 62f 65f
12:50pm 1.6ft 3s 4s 18 22 mph 1018.9mb 62f 65f
11:50am 2ft 4s 3s 18 20 mph 1019.2mb 62f 64f
10:50am 2ft 3s 3s 20 22 mph 1018.9mb 62f 64f
9:50am 2ft 3s 3s 18 22 mph 1018.9mb 62f 64f
8:50am 1.6ft 3s 3s 20 25 mph 1018.9mb 62f 65f
7:50am 1.3ft 3s 3s 20 22 mph 1019mb 62f 64f
6:50am 1.3ft 3s 3s 16 20 mph 1019.1mb 62f 63f
5:50am 1.3ft 3s 3s 18 22 mph 1018.8mb 62f 64f
4:50am 1.6ft 3s 3s 16 18 mph 1018.9mb 62f 64f
3:50am 1.6ft 3s 3s 18 20 mph 1018.6mb 62f 64f
2:50am 1.6ft 3s 3s 16 20 mph 1018.9mb 62f 64f
1:50am 2ft 3s 3s 20 25 mph 1018.8mb 62f 64f
12:50am 2ft 3s 3s 18 22 mph 1019.4mb 62f 64f
Sat 05/30 11:50pm 2.5ft 3s 3s 22 25 mph 1019.3mb 61f 65f
10:50pm 2ft 4s 3s 20 22 mph 1019.4mb 61f 64f
9:50pm 2ft 3s 3s 22 25 mph 1019.2mb 61f 64f
8:50pm 1.6ft 3s 3s 20 25 mph 1019.4mb 61f 64f
7:50pm 1.3ft 3s 3s 20 22 mph 1019.7mb 62f 64f
6:50pm 1.3ft 2s 3s 18 22 mph 1020.2mb 62f 64f
5:50pm 1.3ft 3s 3s 18 20 mph 1020.3mb 62f 64f
4:50pm 1.3ft 3s 3s 18 20 mph 1020.6mb 62f 64f
3:50pm 1.3ft 3s 3s 18
mph
1021.3mb 62f 64f
2:50pm 1.3ft 3s 3s 16 18 mph 1022.1mb 62f 63f
1:50pm 1ft 3s 3s 16 18 mph 1022.5mb 62f 63f
12:50pm 1ft 3s 3s 16 18 mph 1023mb 61f 62f
11:50am 1ft 3s 3s 13 16 mph 1023.5mb 62f 61f
10:50am 1ft 8s 3s 13 16 mph 1023.8mb 61f 60f
9:50am 0.7ft  -  4s 11 13 mph 1023.7mb 61f 60f
8:50am 0.7ft  -  5s 9 11 mph 1024.1mb 61f 60f
7:50am 0.7ft  -  4s 11
mph
1024.3mb 61f 60f
6:50am 0.3ft  -  4s 11 13 mph 1024.1mb 61f 60f
5:50am 0.7ft  -  4s 11
mph
1023.6mb 61f 60f
4:50am 0.7ft  -  4s 11 13 mph 1023.2mb 61f 60f
3:50am 0.7ft  -  3s 11 13 mph 1023.1mb 61f 60f
2:50am 0.7ft  -  3s 11
mph
1023.6mb 61f 60f
1:50am 0.7ft  -  3s 11 13 mph 1023.2mb 61f 60f
12:50am 0.7ft  -  4s 11 13 mph 1023.6mb 61f 60f
Fri 05/29 11:50pm 0.7ft  -  4s 9
mph
1024.1mb 61f 62f
10:50pm 0.7ft  -  4s 4
mph
1024.3mb 61f 61f
9:50pm 1ft 8s 5s 2 4 mph 1024.9mb 61f 60f
8:50pm 0.7ft  -  4s 2
mph
1024.8mb 61f 61f
7:50pm 0.7ft  -  4s 2
mph
1024.5mb 61f 61f
6:50pm 0.7ft  -  4s 2
mph
1024.3mb 61f 61f
5:50pm 0.7ft  -  3s 2 4 mph 1024.5mb 61f 61f
4:50pm 0.7ft  -  3s 7
mph
1025mb 61f 60f
2:50pm 0.7ft  -  4s 9 11 mph 1025.3mb 61f 59f
1:50pm 0.7ft  -  5s 11 13 mph 1025.5mb 61f 59f
12:50pm 0.7ft  -  4s 4 7 mph 1025.5mb 61f 61f